Hubbard, Nebraska
Current Conditions -  °F | °C
As of 11:52 AM on Friday 28 Nov 2014 (Local Time) from KSUX Reporting Station
Clear Clear  
Wind Chill: 35°   Ceiling: Unl
Heat Index: 40°   Visibility: 10mi
Dew Point: 27°   Wind: 7mph
Humidity: 60%   Direction: 140°SE
Pressure: 29.77"   Gusts: NA
Location:  42.39°N, 96.59°W
Report Text: KSUX 281752Z 14006KT 10SM CLR 04/M03 A2977 RMK AO2 SLP092 T00441028 10044 21044 58026
Loading
Personal Weather Stations






























Interactive Weather Map New forecast layout! Learn more

10-Day Weather Forecast

Advertisements
Track Severe Weather on mobile